createdAt,value
2023-04-02T00:02:34.054Z,7.69
2023-04-02T00:06:45.030Z,7.78
2023-04-02T00:10:49.557Z,7.66
2023-04-02T00:14:54.587Z,7.64
2023-04-02T00:19:03.289Z,7.60
2023-04-02T00:23:07.013Z,7.66
2023-04-02T00:27:11.887Z,7.54
2023-04-02T00:31:14.993Z,7.68
2023-04-02T00:35:22.525Z,7.59
2023-04-02T00:39:26.383Z,7.63
2023-04-02T00:43:30.655Z,7.58
2023-04-02T00:47:35.063Z,7.63
2023-04-02T00:51:43.524Z,7.58
2023-04-02T00:55:46.412Z,7.53
2023-04-02T00:59:55.171Z,7.52
2023-04-02T01:04:01.543Z,7.53
2023-04-02T01:08:11.021Z,7.54
2023-04-02T01:12:30.809Z,7.49
2023-04-02T01:16:43.021Z,7.47
2023-04-02T01:21:07.859Z,7.47
2023-04-02T01:25:15.663Z,7.57
2023-04-02T01:29:22.144Z,7.55
2023-04-02T01:33:27.122Z,7.40
2023-04-02T01:37:39.074Z,7.54
2023-04-02T01:41:46.403Z,7.43
2023-04-02T01:45:50.823Z,7.44
2023-04-02T01:49:55.125Z,7.47
2023-04-02T01:54:00.701Z,7.52
2023-04-02T01:58:04.821Z,7.49
2023-04-02T02:02:12.550Z,7.36
2023-04-02T02:06:17.110Z,7.34
2023-04-02T02:10:25.188Z,7.27
2023-04-02T02:14:29.279Z,7.24
2023-04-02T02:18:33.939Z,7.33
2023-04-02T02:22:38.983Z,7.33
2023-04-02T02:26:43.159Z,7.33
2023-04-02T02:30:48.029Z,7.32
2023-04-02T02:34:57.440Z,7.26
2023-04-02T02:39:05.140Z,7.23
2023-04-02T02:43:11.595Z,7.28
2023-04-02T02:47:16.701Z,7.28
2023-04-02T02:51:24.461Z,7.23
2023-04-02T02:55:29.930Z,7.18
2023-04-02T02:59:32.971Z,7.18
2023-04-02T03:03:36.437Z,7.18
2023-04-02T03:07:41.154Z,7.30
2023-04-02T03:11:48.600Z,7.29
2023-04-02T03:15:57.002Z,7.33
2023-04-02T03:20:06.480Z,7.27
2023-04-02T03:24:14.672Z,7.20
2023-04-02T03:28:20.461Z,7.30
2023-04-02T03:32:25.171Z,7.23
2023-04-02T03:36:30.456Z,7.23
2023-04-02T03:40:37.101Z,7.25
2023-04-02T03:44:45.700Z,7.26
2023-04-02T03:48:50.972Z,7.25
2023-04-02T03:52:54.059Z,7.25
2023-04-02T03:56:58.599Z,7.24
2023-04-02T04:01:05.815Z,7.22
2023-04-02T04:05:23.336Z,7.25
2023-04-02T04:09:28.407Z,7.13
2023-04-02T04:13:36.963Z,7.20
2023-04-02T04:17:51.634Z,7.27
2023-04-02T04:21:57.192Z,7.19
2023-04-02T04:26:09.834Z,7.25
2023-04-02T04:30:20.972Z,7.25
2023-04-02T04:34:26.630Z,7.18
2023-04-02T04:38:33.029Z,7.22
2023-04-02T04:42:37.686Z,7.15
2023-04-02T04:46:44.011Z,7.28
2023-04-02T04:50:49.910Z,7.25
2023-04-02T04:54:52.963Z,7.16
2023-04-02T04:59:01.674Z,7.20
2023-04-02T05:03:09.738Z,7.26
2023-04-02T05:07:15.735Z,7.22
2023-04-02T05:11:25.475Z,7.28
2023-04-02T05:15:30.727Z,7.20
2023-04-02T05:19:38.253Z,7.16
2023-04-02T05:23:47.084Z,7.12
2023-04-02T05:27:53.589Z,7.24
2023-04-02T05:32:00.917Z,7.21
2023-04-02T05:36:07.291Z,7.21
2023-04-02T05:40:15.644Z,7.25
2023-04-02T05:44:22.080Z,7.29
2023-04-02T05:48:29.088Z,7.25
2023-04-02T05:52:37.077Z,7.42
2023-04-02T05:56:44.021Z,7.53
2023-04-02T06:00:55.378Z,7.49
2023-04-02T06:05:01.252Z,7.39
2023-04-02T06:09:11.112Z,7.48
2023-04-02T06:13:16.999Z,7.41
2023-04-02T06:17:21.422Z,7.40
2023-04-02T06:21:24.165Z,7.39
2023-04-02T06:25:30.553Z,7.50
2023-04-02T06:29:39.657Z,7.59
2023-04-02T06:33:42.489Z,7.76
2023-04-02T06:37:47.328Z,7.67
2023-04-02T06:41:57.897Z,7.58
2023-04-02T06:46:03.237Z,7.44
2023-04-02T06:50:11.430Z,7.67
2023-04-02T06:54:15.483Z,7.55
2023-04-02T06:58:20.973Z,7.75
2023-04-02T07:02:31.268Z,8.05
2023-04-02T07:06:34.075Z,7.93
2023-04-02T07:10:37.179Z,7.94
2023-04-02T07:14:41.360Z,8.10
2023-04-02T07:18:44.422Z,8.20
2023-04-02T07:22:47.128Z,8.13
2023-04-02T07:26:49.763Z,8.30
2023-04-02T07:30:55.149Z,8.28
2023-04-02T07:34:57.812Z,8.12
2023-04-02T07:39:00.886Z,8.31
2023-04-02T07:43:03.609Z,8.40
2023-04-02T07:47:08.631Z,8.52
2023-04-02T07:51:19.455Z,8.65
2023-04-02T07:55:22.149Z,8.70
2023-04-02T07:59:24.900Z,8.71
2023-04-02T08:03:29.588Z,8.72
2023-04-02T08:07:32.411Z,8.85
2023-04-02T08:11:35.083Z,8.88
2023-04-02T08:15:38.025Z,8.90
2023-04-02T08:19:54.046Z,8.93
2023-04-02T08:23:57.565Z,8.87
2023-04-02T08:28:01.576Z,8.85
2023-04-02T08:32:04.378Z,8.87
2023-04-02T08:36:08.821Z,9.11
2023-04-02T08:40:22.121Z,9.25
2023-04-02T08:44:33.804Z,9.29
2023-04-02T08:48:40.738Z,9.35
2023-04-02T08:52:46.641Z,9.29
2023-04-02T08:56:53.430Z,9.61
2023-04-02T09:00:57.210Z,9.46
2023-04-02T09:04:59.908Z,9.62
2023-04-02T09:09:05.050Z,9.59
2023-04-02T09:13:15.172Z,9.66
2023-04-02T09:17:19.450Z,9.65
2023-04-02T09:21:34.606Z,9.57
2023-04-02T09:25:48.449Z,9.52
2023-04-02T09:30:01.144Z,9.49
2023-04-02T09:34:30.847Z,8.92
2023-04-02T09:38:35.281Z,8.88
2023-04-02T09:42:39.305Z,8.91
2023-04-02T09:46:53.234Z,9.12
2023-04-02T09:51:11.268Z,9.24
2023-04-02T09:55:22.950Z,9.49
2023-04-02T09:59:27.047Z,9.92
2023-04-02T10:03:30.958Z,9.71
2023-04-02T10:07:35.596Z,9.59
2023-04-02T10:11:46.251Z,9.76
2023-04-02T10:15:54.689Z,9.93
2023-04-02T10:20:00.470Z,10.09
2023-04-02T10:24:03.964Z,10.06
2023-04-02T10:28:08.401Z,10.14
2023-04-02T10:32:15.825Z,10.46
2023-04-02T10:36:27.175Z,10.31
2023-04-02T10:40:32.130Z,10.38
2023-04-02T10:44:40.932Z,10.11
2023-04-02T10:48:52.462Z,9.73
2023-04-02T10:53:00.398Z,9.97
2023-04-02T10:57:08.008Z,9.98
2023-04-02T11:01:13.989Z,10.00
2023-04-02T11:05:23.618Z,10.07
2023-04-02T11:09:27.833Z,10.19
2023-04-02T11:13:33.484Z,9.80
2023-04-02T11:17:36.266Z,9.62
2023-04-02T11:21:54.973Z,9.76
2023-04-02T11:26:50.086Z,9.81
2023-04-02T11:30:52.923Z,9.71
2023-04-02T11:35:07.529Z,9.72
2023-04-02T11:39:17.450Z,10.08
2023-04-02T11:43:49.391Z,10.06
2023-04-02T11:48:29.508Z,10.21
2023-04-02T11:52:35.513Z,9.88
2023-04-02T11:56:45.011Z,9.80
2023-04-02T12:01:14.897Z,9.58
2023-04-02T12:05:23.010Z,9.50
2023-04-02T12:09:27.228Z,9.63
2023-04-02T12:13:54.185Z,9.67
2023-04-02T12:18:06.376Z,9.73
2023-04-02T12:22:17.677Z,9.71
2023-04-02T12:26:37.266Z,9.54
2023-04-02T12:30:42.398Z,9.70
2023-04-02T12:34:46.453Z,9.74
2023-04-02T12:38:51.198Z,9.58
2023-04-02T12:42:54.173Z,9.59
2023-04-02T12:46:59.435Z,9.34
2023-04-02T12:51:02.924Z,9.36
2023-04-02T12:55:06.622Z,9.37
2023-04-02T12:59:19.751Z,9.31
2023-04-02T13:03:23.888Z,9.29
2023-04-02T13:07:27.808Z,9.31
2023-04-02T13:11:41.267Z,9.24
2023-04-02T13:15:44.030Z,9.19
2023-04-02T13:19:48.477Z,9.14
2023-04-02T13:23:51.178Z,9.29
2023-04-02T13:27:54.668Z,9.04
2023-04-02T13:31:59.439Z,8.64
2023-04-02T13:36:03.556Z,8.73
2023-04-02T13:40:09.188Z,8.60
2023-04-02T13:44:20.231Z,8.52
2023-04-02T13:48:26.137Z,8.39
2023-04-02T13:52:30.388Z,8.66
2023-04-02T13:56:33.346Z,8.72
2023-04-02T14:00:37.663Z,8.58
2023-04-02T14:04:42.649Z,8.65
2023-04-02T14:08:55.915Z,8.33
2023-04-02T14:13:15.941Z,8.29
2023-04-02T14:17:24.901Z,8.07
2023-04-02T14:21:35.729Z,8.07
2023-04-02T14:25:44.258Z,8.30
2023-04-02T14:29:49.695Z,7.97
2023-04-02T14:33:58.595Z,8.03
2023-04-02T14:38:09.578Z,8.01
2023-04-02T14:42:16.642Z,7.95
2023-04-02T14:46:19.400Z,7.90
2023-04-02T14:50:27.956Z,7.88
2023-04-02T14:54:33.279Z,7.71
2023-04-02T14:58:39.879Z,7.54
2023-04-02T15:02:46.950Z,7.69
2023-04-02T15:06:52.473Z,7.33
2023-04-02T15:11:05.695Z,7.37
2023-04-02T15:15:29.805Z,7.31
2023-04-02T15:19:36.164Z,7.16
2023-04-02T15:23:47.104Z,7.13
2023-04-02T15:27:59.384Z,7.01
2023-04-02T15:32:08.300Z,7.11
2023-04-02T15:36:38.409Z,6.89
2023-04-02T15:40:55.590Z,7.04
2023-04-02T15:45:19.970Z,6.93
2023-04-02T15:49:36.981Z,6.92
2023-04-02T15:53:48.251Z,6.96
2023-04-02T15:58:14.438Z,6.92
2023-04-02T16:03:02.716Z,6.97
2023-04-02T16:07:29.554Z,6.89
2023-04-02T16:11:33.579Z,6.89
2023-04-02T16:15:38.604Z,6.81
2023-04-02T16:19:43.509Z,6.82
2023-04-02T16:23:47.857Z,6.72
2023-04-02T16:27:55.397Z,6.64
2023-04-02T16:32:02.392Z,6.62
2023-04-02T16:36:15.036Z,6.47
2023-04-02T16:40:30.983Z,6.30
2023-04-02T16:44:45.741Z,6.24
2023-04-02T16:48:52.934Z,6.21
2023-04-02T16:53:00.920Z,6.14
2023-04-02T16:57:17.342Z,6.10
2023-04-02T17:01:21.873Z,6.09
2023-04-02T17:05:32.468Z,5.97
2023-04-02T17:09:41.149Z,5.89
2023-04-02T17:13:47.998Z,5.91
2023-04-02T17:17:50.941Z,5.84
2023-04-02T17:21:56.070Z,5.86
2023-04-02T17:26:03.453Z,5.83
2023-04-02T17:30:14.727Z,5.78
2023-04-02T17:34:20.872Z,5.73
2023-04-02T17:38:28.380Z,5.76
2023-04-02T17:42:40.916Z,5.76
2023-04-02T17:46:49.094Z,5.72
2023-04-02T17:51:03.306Z,5.58
2023-04-02T17:55:17.323Z,5.51
2023-04-02T17:59:28.738Z,5.58
2023-04-02T18:03:51.254Z,5.54
2023-04-02T18:07:59.796Z,5.57
2023-04-02T18:12:11.812Z,5.52
2023-04-02T18:16:19.663Z,5.59
2023-04-02T18:20:30.022Z,5.54
2023-04-02T18:24:42.757Z,5.51
2023-04-02T18:28:52.521Z,5.44
2023-04-02T18:33:05.483Z,5.38
2023-04-02T18:37:27.101Z,5.28
2023-04-02T18:41:44.180Z,5.31
2023-04-02T18:45:57.740Z,5.21
2023-04-02T18:50:12.717Z,5.23
2023-04-02T18:54:21.884Z,5.18
2023-04-02T18:58:28.645Z,5.19
2023-04-02T19:02:42.294Z,5.14
2023-04-02T19:06:46.716Z,5.12
2023-04-02T19:10:54.456Z,5.20
2023-04-02T19:14:59.597Z,5.12
2023-04-02T19:19:08.484Z,5.06
2023-04-02T19:23:25.675Z,4.97
2023-04-02T19:27:33.494Z,4.89
2023-04-02T19:31:48.276Z,4.62
2023-04-02T19:35:55.285Z,4.78
2023-04-02T19:40:09.438Z,4.67
2023-04-02T19:44:14.549Z,4.57
2023-04-02T19:48:20.615Z,4.44
2023-04-02T19:52:23.635Z,4.46
2023-04-02T19:56:27.955Z,4.35
2023-04-02T20:00:32.960Z,4.32
2023-04-02T20:04:35.861Z,4.27
2023-04-02T20:08:39.080Z,4.24
2023-04-02T20:12:42.153Z,4.27
2023-04-02T20:16:46.804Z,4.17
2023-04-02T20:20:50.376Z,4.11
2023-04-02T20:24:54.951Z,4.16
2023-04-02T20:28:58.001Z,4.19
2023-04-02T20:33:02.434Z,4.16
2023-04-02T20:37:05.569Z,4.12
2023-04-02T20:41:09.514Z,4.05
2023-04-02T20:45:12.879Z,3.91
2023-04-02T20:49:17.619Z,3.87
2023-04-02T20:53:20.965Z,3.80
2023-04-02T20:57:26.184Z,3.82
2023-04-02T21:01:31.022Z,3.75
2023-04-02T21:05:35.415Z,3.69
2023-04-02T21:09:38.342Z,3.69
2023-04-02T21:13:44.221Z,3.60
2023-04-02T21:17:47.457Z,3.63
2023-04-02T21:21:51.793Z,3.59
2023-04-02T21:25:59.570Z,3.59
2023-04-02T21:30:02.485Z,3.48
2023-04-02T21:34:06.549Z,3.59
2023-04-02T21:38:10.996Z,3.52
2023-04-02T21:42:14.541Z,3.53
2023-04-02T21:46:19.073Z,3.49
2023-04-02T21:50:21.993Z,3.47
2023-04-02T21:54:26.606Z,3.47
2023-04-02T21:58:29.521Z,3.46
2023-04-02T22:02:32.423Z,3.40
2023-04-02T22:06:38.661Z,3.38
2023-04-02T22:10:43.358Z,3.40
2023-04-02T22:14:46.422Z,3.29
2023-04-02T22:18:50.390Z,3.28
2023-04-02T22:22:53.431Z,3.30
2023-04-02T22:26:57.751Z,3.29
2023-04-02T22:31:04.741Z,3.28
2023-04-02T22:35:07.873Z,3.28
2023-04-02T22:39:12.623Z,3.22
2023-04-02T22:43:17.024Z,3.29
2023-04-02T22:47:20.131Z,3.28
2023-04-02T22:51:24.854Z,3.27
2023-04-02T22:55:27.927Z,3.21
2023-04-02T22:59:32.224Z,3.27
2023-04-02T23:03:35.580Z,3.37
2023-04-02T23:07:38.513Z,3.29
2023-04-02T23:11:41.434Z,3.28
2023-04-02T23:15:46.621Z,3.24
2023-04-02T23:19:49.445Z,3.18
2023-04-02T23:23:52.590Z,3.21
2023-04-02T23:27:55.667Z,3.20
2023-04-02T23:32:01.057Z,3.09
2023-04-02T23:36:08.835Z,3.14
2023-04-02T23:40:12.184Z,3.11
2023-04-02T23:44:15.036Z,3.03
2023-04-02T23:48:19.503Z,3.05
2023-04-02T23:52:22.468Z,3.02
2023-04-02T23:56:26.062Z,2.99
